Pagina principale
METAR-TAF:

METAR-TAF

Aeroporti :

Aeroporto Internazionale del Kuwait

Madinat al-Kuwait, Kuwait

latitudine: 29-13N, longitudine: 047-59E, altezza: 55 m

Osservazione

Il bollettino è stato emesso 23 minuti fa, alle 05:00 UTC
Vento 5 kt da ovest
Temperature 21°C
Umidità 56%
Pressione 1013 hPa
Visibilità: 7000 m
Cielo sereno

METAR: OKBK 300500Z 27005KT 7000 SKC 21/12 Q1013 NOSIG

Ora: 08:23 (05:23 UTC)

Previsione

Il bollettino è stato emesso 6 ore e 38 minuti fa, alle 22:45 UTC
Previsione valida dal 30 alle 00 UTC al 31 alle 06 UTC
Vento 8 kt da nord con raffiche fino a 18 kt
Visibilità: 6000 m

TAF: OKBK 292245Z 3000/3106 36008G18KT 6000 NSC

Osservazioni e previsioni meteorologiche di più di 4000 aeroporti (messaggi METAR e TAF).

Le stazioni disponibili sono rappresentate dai dischi gialli e rossi sulla carta.

Puntare il mouse per vedere il nome della stazione.

Clicca sopra per visualizzare le osservazioni e previsioni meteorologiche.

Per cambiare la mappa : fare clic sui pulsanti verdi con una croce nera per ingrandire, il pulsante verde con un trattino per diminuire, o sulla freccia verde per le mappe adiacenti.


METAR-TAF: